Time;durP1;ratioP1;P1;durP2;ratioP2;P2;SDS_P1;SDS_P2;PMS_P1;PMS_P2;Temp;Humidity;BMP_temperature;BMP_pressure;BME280_temperature;BME280_humidity;BME280_pressure;Samples;Min_cycle;Max_cycle;Signal;HPM_P1;HPM_P2
2022/11/25 00:02:13;;;;;;;16.52;3.90;;;;;;;9.03;100.00;100728.81;5027988;28;20053;-69
2022/11/25 00:04:38;;;;;;;19.52;3.78;;;;;;;9.05;100.00;100732.09;5045837;28;20380;-69
2022/11/25 00:07:04;;;;;;;15.85;4.10;;;;;;;9.05;100.00;100726.72;5032548;28;20112;-70
2022/11/25 00:09:29;;;;;;;17.80;3.88;;;;;;;9.08;100.00;100736.25;5032780;28;20111;-70
2022/11/25 00:11:54;;;;;;;16.83;4.10;;;;;;;9.09;100.00;100729.81;5032371;28;20542;-69
2022/11/25 00:14:20;;;;;;;20.67;4.07;;;;;;;9.09;100.00;100726.28;5021345;28;20040;-70
2022/11/25 00:16:45;;;;;;;13.63;3.65;;;;;;;9.10;100.00;100720.66;5028809;28;20029;-69
2022/11/25 00:19:10;;;;;;;17.92;4.53;;;;;;;9.11;100.00;100721.50;5032581;28;20029;-69
2022/11/25 00:21:36;;;;;;;19.70;4.10;;;;;;;9.11;100.00;100718.81;5031278;28;20036;-69
2022/11/25 00:24:04;;;;;;;18.73;4.07;;;;;;;9.12;100.00;100713.19;5032339;28;20057;-69
2022/11/25 00:26:33;;;;;;;19.33;3.78;;;;;;;9.12;100.00;100709.63;5012997;28;20076;-69
2022/11/25 00:29:01;;;;;;;18.88;4.32;;;;;;;9.13;100.00;100705.91;5012590;28;20107;-69
2022/11/25 00:31:29;;;;;;;23.20;4.10;;;;;;;9.12;100.00;100704.25;5012719;28;20385;-69
2022/11/25 00:33:55;;;;;;;21.95;4.55;;;;;;;9.09;100.00;100710.06;5012468;28;20038;-70
2022/11/25 00:36:26;;;;;;;19.27;4.30;;;;;;;9.12;100.00;100704.25;5012573;28;20485;-69
2022/11/25 00:38:56;;;;;;;17.97;4.23;;;;;;;9.11;100.00;100698.03;5031940;28;20026;-69
2022/11/25 00:46:53;;;;;;;18.90;3.80;;;;;;;9.09;100.00;100694.72;5031792;28;20167;-69
2022/11/25 00:49:18;;;;;;;18.45;4.03;;;;;;;9.09;100.00;100691.19;5032348;28;20060;-70
2022/11/25 00:51:43;;;;;;;18.00;3.90;;;;;;;9.09;100.00;100694.72;5032514;28;20415;-70
2022/11/25 00:54:09;;;;;;;16.95;4.35;;;;;;;9.08;100.00;100689.56;5032053;28;20037;-69
2022/11/25 00:56:34;;;;;;;19.65;4.13;;;;;;;9.08;100.00;100700.34;5029943;28;20041;-69
2022/11/25 00:58:59;;;;;;;16.33;3.58;;;;;;;9.08;100.00;100697.66;5032092;28;20037;-69
2022/11/25 01:01:25;;;;;;;21.60;4.55;;;;;;;9.08;100.00;100705.75;5028761;28;20090;-70
2022/11/25 01:03:52;;;;;;;19.70;4.28;;;;;;;9.07;100.00;100715.69;5032050;28;20029;-69
2022/11/25 01:06:17;;;;;;;17.50;3.72;;;;;;;9.08;100.00;100700.34;5045356;28;20041;-69
2022/11/25 01:08:43;;;;;;;20.65;4.30;;;;;;;9.09;100.00;100705.53;5032236;28;20029;-69
2022/11/25 01:11:14;;;;;;;22.17;4.07;;;;;;;9.08;100.00;100703.03;5035231;28;20045;-69
2022/11/25 01:13:40;;;;;;;19.17;4.60;;;;;;;9.11;100.00;100710.72;5023316;28;20033;-70
2022/11/25 01:16:07;;;;;;;18.17;3.67;;;;;;;9.12;100.00;100712.34;5029838;28;20650;-69
2022/11/25 01:18:33;;;;;;;16.80;3.80;;;;;;;9.11;100.00;100706.13;5035607;28;20030;-70
2022/11/25 01:21:10;;;;;;;16.98;3.88;;;;;;;9.12;100.00;100707.78;5035300;28;20026;-69
2022/11/25 01:23:36;;;;;;;20.25;4.40;;;;;;;9.13;100.00;100708.59;5035005;28;20029;-69
2022/11/25 01:26:09;;;;;;;18.23;3.75;;;;;;;9.16;100.00;100710.88;5030812;28;20116;-69
2022/11/25 01:28:35;;;;;;;18.15;3.50;;;;;;;9.17;100.00;100710.66;5035338;28;20033;-69
2022/11/25 01:31:20;;;;;;;21.80;4.32;;;;;;;9.15;100.00;100718.16;5034306;28;20030;-69
2022/11/25 01:33:47;;;;;;;23.05;4.03;;;;;;;9.15;100.00;100718.16;5015543;28;20044;-69
2022/11/25 01:36:15;;;;;;;17.52;4.30;;;;;;;9.16;100.00;100725.22;5029064;28;20083;-69
2022/11/25 01:38:41;;;;;;;20.25;4.50;;;;;;;9.18;100.00;100731.22;5035452;28;20431;-70
2022/11/25 01:41:09;;;;;;;17.27;4.03;;;;;;;9.18;100.00;100727.69;5033797;28;20021;-69
2022/11/25 01:43:34;;;;;;;18.10;3.67;;;;;;;9.21;100.00;100740.75;5015355;28;20532;-69
2022/11/25 01:46:12;;;;;;;16.58;3.90;;;;;;;9.20;100.00;100739.91;5026740;28;20041;-69
2022/11/25 01:48:40;;;;;;;17.38;3.65;;;;;;;9.22;100.00;100737.84;5035197;28;20057;-69
2022/11/25 01:51:31;;;;;;;16.65;3.67;;;;;;;9.24;100.00;100753.81;5034033;28;20071;-69
2022/11/25 01:54:00;;;;;;;17.08;4.20;;;;;;;9.22;100.00;100753.19;5032314;28;20049;-69
2022/11/25 01:56:29;;;;;;;21.65;4.60;;;;;;;9.22;100.00;100758.59;5031251;28;20488;-68
2022/11/25 01:58:55;;;;;;;16.45;3.92;;;;;;;9.24;100.00;100761.91;5031801;28;20411;-69
2022/11/25 02:01:20;;;;;;;17.38;3.88;;;;;;;9.23;100.00;100763.75;5030675;28;20140;-69
2022/11/25 02:03:49;;;;;;;16.98;4.13;;;;;;;9.27;100.00;100774.97;5034983;28;20095;-69
2022/11/25 02:06:22;;;;;;;18.27;3.92;;;;;;;9.30;100.00;100771.00;5033676;28;20044;-69
2022/11/25 02:08:52;;;;;;;19.70;4.05;;;;;;;9.34;100.00;100778.44;5033445;28;20033;-69
2022/11/25 02:11:19;;;;;;;18.70;4.28;;;;;;;9.34;100.00;100781.13;5034584;28;20072;-69
2022/11/25 02:13:47;;;;;;;17.25;3.97;;;;;;;9.36;100.00;100779.06;5033637;28;20224;-69
2022/11/25 02:16:13;;;;;;;21.40;4.57;;;;;;;9.37;100.00;100783.41;5033134;28;20049;-69
2022/11/25 02:18:38;;;;;;;16.00;3.83;;;;;;;9.36;100.00;100783.63;5033012;28;20033;-69
2022/11/25 02:21:03;;;;;;;17.48;4.10;;;;;;;9.36;100.00;100789.00;5033664;28;20036;-69
2022/11/25 02:23:50;;;;;;;19.30;4.53;;;;;;;9.37;100.00;100796.91;5033829;28;20091;-69
2022/11/25 02:26:16;;;;;;;16.80;3.78;;;;;;;9.35;100.00;100790.91;5032690;28;20033;-69
2022/11/25 02:28:41;;;;;;;18.00;3.80;;;;;;;9.32;100.00;100790.53;5032378;28;20041;-69
2022/11/25 02:31:07;;;;;;;18.90;4.70;;;;;;;9.30;100.00;100798.84;5033843;28;20036;-70
2022/11/25 02:33:32;;;;;;;17.05;3.92;;;;;;;9.30;100.00;100798.84;5033637;28;20053;-69
2022/11/25 02:36:13;;;;;;;15.73;4.03;;;;;;;9.23;100.00;100798.88;5033154;28;20040;-69
2022/11/25 02:38:46;;;;;;;18.87;4.20;;;;;;;9.20;100.00;100798.50;5034589;28;20052;-69
2022/11/25 02:41:29;;;;;;;21.85;4.10;;;;;;;9.18;100.00;100812.19;5034030;28;20036;-69
2022/11/25 02:43:55;;;;;;;13.25;3.97;;;;;;;9.13;100.00;100808.50;5033233;28;20036;-69
2022/11/25 02:46:23;;;;;;;17.23;4.18;;;;;;;9.07;100.00;100820.16;5031982;28;20041;-69
2022/11/25 02:48:50;;;;;;;15.75;3.75;;;;;;;9.02;100.00;100801.91;5034336;28;20038;-69
2022/11/25 02:51:17;;;;;;;19.02;3.75;;;;;;;8.98;100.00;100797.97;5033048;28;20103;-69
2022/11/25 02:53:43;;;;;;;14.68;3.22;;;;;;;8.96;100.00;100789.28;5033850;28;20033;-69
2022/11/25 02:56:10;;;;;;;12.13;3.20;;;;;;;8.95;100.00;100791.16;5031648;28;20029;-69
2022/11/25 02:58:36;;;;;;;16.05;3.15;;;;;;;8.92;100.00;100767.28;5033914;28;20025;-69
2022/11/25 03:01:01;;;;;;;14.15;3.00;;;;;;;8.92;100.00;100751.06;5029476;28;20111;-70
2022/11/25 03:03:27;;;;;;;14.43;3.60;;;;;;;8.92;100.00;100739.47;5033614;28;20388;-70
2022/11/25 03:05:52;;;;;;;14.20;3.60;;;;;;;8.93;100.00;100720.34;5047987;28;20469;-69
2022/11/25 03:08:17;;;;;;;13.50;3.38;;;;;;;8.89;100.00;100716.44;5033508;28;20079;-69
2022/11/25 03:10:43;;;;;;;16.27;4.15;;;;;;;8.84;100.00;100729.75;5032585;28;20041;-69
2022/11/25 03:13:09;;;;;;;13.52;3.15;;;;;;;8.86;100.00;100739.31;5033732;28;20372;-69
2022/11/25 03:15:35;;;;;;;12.85;3.15;;;;;;;8.85;100.00;100743.03;5032848;28;20044;-69
2022/11/25 03:18:01;;;;;;;12.15;2.50;;;;;;;8.83;100.00;100763.19;5031999;28;20045;-69
2022/11/25 03:20:26;;;;;;;12.00;3.10;;;;;;;8.81;100.00;100776.06;5032992;28;20033;-70
2022/11/25 03:22:51;;;;;;;9.38;2.70;;;;;;;8.77;100.00;100764.88;5032711;28;20499;-69
2022/11/25 03:25:17;;;;;;;13.48;3.10;;;;;;;8.76;100.00;100748.91;5032235;28;20029;-69
2022/11/25 03:27:43;;;;;;;10.80;2.92;;;;;;;8.74;100.00;100751.81;5033126;28;20026;-69
2022/11/25 03:30:12;;;;;;;12.88;2.80;;;;;;;8.77;100.00;100758.66;5031825;28;20376;-70
2022/11/25 03:32:37;;;;;;;10.57;2.70;;;;;;;8.78;100.00;100768.41;5030167;28;20107;-69
2022/11/25 03:35:03;;;;;;;11.05;2.58;;;;;;;8.76;100.00;100792.91;5032299;28;20084;-70
2022/11/25 03:37:29;;;;;;;11.43;2.42;;;;;;;8.74;100.00;100802.25;5033210;28;20022;-69
2022/11/25 03:39:54;;;;;;;12.88;2.40;;;;;;;8.74;100.00;100800.38;5032922;28;20028;-69
2022/11/25 03:42:19;;;;;;;8.02;2.20;;;;;;;8.69;100.00;100803.69;5032182;28;20037;-69
2022/11/25 03:44:44;;;;;;;12.30;2.33;;;;;;;8.69;100.00;100809.09;5032767;28;20083;-69
2022/11/25 03:47:10;;;;;;;9.93;2.17;;;;;;;8.68;100.00;100804.75;5030503;28;20029;-70
2022/11/25 03:49:35;;;;;;;7.47;2.05;;;;;;;8.66;100.00;100809.53;5033039;28;20026;-69
2022/11/25 03:52:01;;;;;;;8.07;2.03;;;;;;;8.65;100.00;100810.59;5019387;28;20056;-69
2022/11/25 03:54:26;;;;;;;9.63;2.42;;;;;;;8.64;100.00;100817.00;5013268;28;20444;-70
2022/11/25 03:56:51;;;;;;;6.63;2.00;;;;;;;8.63;100.00;100823.44;5029129;28;20034;-69
2022/11/25 03:59:17;;;;;;;9.43;2.05;;;;;;;8.59;100.00;100819.53;5032694;28;20025;-70
2022/11/25 04:01:42;;;;;;;10.25;2.20;;;;;;;8.55;100.00;100812.09;5028253;28;20077;-69
2022/11/25 04:04:08;;;;;;;5.03;1.80;;;;;;;8.55;100.00;100815.59;5032045;28;20060;-70
2022/11/25 04:06:34;;;;;;;10.18;2.85;;;;;;;8.52;100.00;100829.50;5018241;28;20063;-69
2022/11/25 04:08:59;;;;;;;8.48;1.85;;;;;;;8.51;100.00;100827.84;5012932;28;20531;-69
2022/11/25 04:12:45;;;;;;;7.03;2.05;;;;;;;8.51;100.00;100822.44;5043236;28;20446;-68
2022/11/25 04:14:09;;;;;;;7.70;2.17;;;;;;;8.48;100.00;100829.13;5012864;28;20363;-69
2022/11/25 04:16:35;;;;;;;5.55;1.73;;;;;;;8.46;100.00;100839.25;5026225;28;20033;-69
2022/11/25 04:19:00;;;;;;;9.27;1.98;;;;;;;8.44;100.00;100838.66;5030372;28;20033;-68
2022/11/25 04:21:25;;;;;;;5.57;2.03;;;;;;;8.38;100.00;100844.88;5013367;28;20432;-69
2022/11/25 04:23:51;;;;;;;8.23;1.90;;;;;;;8.36;100.00;100848.81;5012842;28;20025;-69
2022/11/25 04:26:16;;;;;;;5.68;1.58;;;;;;;8.36;100.00;100851.50;5023127;28;20044;-69
2022/11/25 04:28:41;;;;;;;5.57;1.58;;;;;;;8.32;100.00;100864.59;5031607;28;20026;-69
2022/11/25 04:31:08;;;;;;;6.63;1.58;;;;;;;8.31;100.00;100871.00;5011276;28;20053;-69
2022/11/25 04:33:33;;;;;;;4.25;1.58;;;;;;;8.29;100.00;100868.53;5012447;28;20026;-69
2022/11/25 04:35:58;;;;;;;5.72;1.65;;;;;;;8.29;100.00;100868.53;5020718;28;20132;-69
2022/11/25 04:38:24;;;;;;;6.20;1.67;;;;;;;8.28;100.00;100877.63;5030915;28;20475;-69
2022/11/25 04:40:49;;;;;;;5.85;1.73;;;;;;;8.27;100.00;100881.38;5031667;28;20025;-69
2022/11/25 04:43:14;;;;;;;3.85;1.27;;;;;;;8.26;100.00;100887.81;5031403;28;20030;-69
2022/11/25 04:45:39;;;;;;;6.18;1.58;;;;;;;8.25;100.00;100894.22;5035248;28;20095;-69
2022/11/25 04:48:05;;;;;;;5.28;1.50;;;;;;;8.23;100.00;100879.28;5036046;28;20111;-69
2022/11/25 04:50:30;;;;;;;7.30;1.67;;;;;;;8.22;100.00;100891.13;5020986;28;20064;-69
2022/11/25 04:52:55;;;;;;;6.72;1.63;;;;;;;8.19;100.00;100878.88;5016491;28;20026;-69
2022/11/25 04:55:21;;;;;;;5.25;1.77;;;;;;;8.14;100.00;100882.22;5018690;28;20033;-69
2022/11/25 04:57:46;;;;;;;5.65;2.00;;;;;;;8.14;100.00;100871.44;5035994;28;20021;-70
2022/11/25 05:00:12;;;;;;;6.28;1.60;;;;;;;8.12;100.00;100895.09;5023026;28;20088;-69
2022/11/25 05:02:38;;;;;;;7.00;2.00;;;;;;;8.11;100.00;100898.81;5029630;28;20132;-69
2022/11/25 05:05:04;;;;;;;5.35;1.90;;;;;;;8.09;100.00;100906.28;5050200;28;20373;-69
2022/11/25 05:07:29;;;;;;;8.68;1.95;;;;;;;8.09;100.00;100906.28;5035807;28;20116;-69
2022/11/25 05:09:55;;;;;;;9.82;1.90;;;;;;;8.11;100.00;100914.16;5033743;28;20029;-69
2022/11/25 05:12:24;;;;;;;8.68;2.10;;;;;;;8.05;100.00;100906.91;5034345;28;20111;-69
2022/11/25 05:14:49;;;;;;;7.13;1.92;;;;;;;8.03;100.00;100903.56;5035918;28;20029;-70
2022/11/25 05:17:27;;;;;;;7.10;2.05;;;;;;;7.95;100.00;100909.97;5034482;28;20044;-69
2022/11/25 05:19:52;;;;;;;6.28;2.20;;;;;;;7.92;100.00;100911.22;5035307;28;20499;-68
2022/11/25 05:22:20;;;;;;;8.60;2.28;;;;;;;7.90;100.00;100915.19;5035593;28;20034;-69
2022/11/25 05:24:46;;;;;;;9.75;2.25;;;;;;;7.90;100.00;100907.09;5035393;28;20121;-69
2022/11/25 05:27:12;;;;;;;6.50;2.42;;;;;;;7.88;100.00;100915.38;5015975;28;20125;-69
2022/11/25 05:29:38;;;;;;;8.30;2.60;;;;;;;7.88;100.00;100901.91;5022171;28;20103;-69
2022/11/25 05:32:04;;;;;;;8.80;2.60;;;;;;;7.85;100.00;100909.56;5035489;28;20037;-69
2022/11/25 05:34:29;;;;;;;7.30;2.60;;;;;;;7.84;100.00;100911.44;5035562;28;20384;-69
2022/11/25 05:36:55;;;;;;;6.65;2.50;;;;;;;7.80;100.00;100920.94;5034314;28;20037;-69
2022/11/25 05:39:20;;;;;;;10.73;2.53;;;;;;;7.78;100.00;100914.94;5030722;28;20037;-69
2022/11/25 05:41:46;;;;;;;8.07;2.72;;;;;;;7.76;100.00;100915.16;5014350;28;20457;-69
2022/11/25 05:44:11;;;;;;;10.55;2.88;;;;;;;7.71;100.00;100917.63;5015313;28;20030;-69
2022/11/25 05:46:36;;;;;;;6.75;2.80;;;;;;;7.72;100.00;100921.97;5025900;28;20044;-69
2022/11/25 05:49:02;;;;;;;8.93;3.05;;;;;;;7.70;100.00;100924.06;5034467;28;20127;-69
2022/11/25 05:51:28;;;;;;;8.27;3.35;;;;;;;7.70;100.00;100928.59;5034960;28;20485;-69
2022/11/25 05:53:54;;;;;;;11.63;3.05;;;;;;;7.66;100.00;100930.88;5035178;28;20032;-69
2022/11/25 05:56:19;;;;;;;9.50;2.95;;;;;;;7.62;100.00;100930.47;5031732;28;20039;-69
2022/11/25 05:58:45;;;;;;;11.45;3.80;;;;;;;7.61;100.00;100939.56;5035080;28;20025;-69
2022/11/25 06:01:13;;;;;;;9.68;3.70;;;;;;;7.60;100.00;100945.97;5024583;28;20053;-70
2022/11/25 06:03:39;;;;;;;10.98;3.90;;;;;;;7.60;100.00;100943.28;5035034;28;20076;-69
2022/11/25 06:06:06;;;;;;;11.63;3.67;;;;;;;7.58;100.00;100941.84;5033904;28;20029;-69
2022/11/25 06:08:34;;;;;;;11.10;3.83;;;;;;;7.57;100.00;100945.56;5034544;28;20419;-70
2022/11/25 06:11:03;;;;;;;12.15;4.55;;;;;;;7.59;100.00;100941.66;5033999;28;20049;-69
2022/11/25 06:13:28;;;;;;;11.48;4.50;;;;;;;7.56;100.00;100942.06;5034547;28;20025;-69
2022/11/25 06:15:54;;;;;;;12.15;4.90;;;;;;;7.57;100.00;100946.38;5032381;28;20021;-69
2022/11/25 06:18:19;;;;;;;13.18;4.80;;;;;;;7.56;100.00;100950.13;5034238;28;20040;-69
2022/11/25 06:20:44;;;;;;;16.45;5.40;;;;;;;7.60;100.00;100959.44;5033814;28;20029;-69
2022/11/25 06:23:10;;;;;;;10.07;5.07;;;;;;;7.57;100.00;100961.72;5034114;28;20035;-70
2022/11/25 06:25:36;;;;;;;14.93;5.22;;;;;;;7.57;100.00;100967.09;5033568;28;20156;-69
2022/11/25 06:28:02;;;;;;;13.23;5.00;;;;;;;7.55;100.00;100961.94;5034543;28;20033;-69
2022/11/25 06:30:28;;;;;;;12.68;4.50;;;;;;;7.56;100.00;100971.69;5033570;28;20040;-69
2022/11/25 06:32:54;;;;;;;12.82;4.85;;;;;;;7.55;100.00;100970.00;5034147;28;20095;-69
2022/11/25 06:35:20;;;;;;;12.27;4.50;;;;;;;7.56;100.00;100970.81;5031976;28;20076;-69
2022/11/25 06:37:46;;;;;;;12.43;4.50;;;;;;;7.56;100.00;100977.06;5032709;28;20024;-70
2022/11/25 06:40:11;;;;;;;10.98;4.10;;;;;;;7.55;100.00;100985.31;5034331;28;20030;-69
2022/11/25 06:42:38;;;;;;;15.20;5.60;;;;;;;7.55;100.00;100988.00;5020846;28;20083;-69
2022/11/25 06:45:04;;;;;;;10.95;4.72;;;;;;;7.53;100.00;100988.22;5014520;28;20034;-69
2022/11/25 06:47:29;;;;;;;10.90;4.00;;;;;;;7.53;100.00;100988.22;5031396;28;20480;-69
2022/11/25 06:49:55;;;;;;;11.50;4.18;;;;;;;7.52;100.00;100997.34;5034133;28;20095;-69
2022/11/25 06:52:20;;;;;;;9.57;4.03;;;;;;;7.48;100.00;100989.88;5031495;28;20041;-69
2022/11/25 06:54:45;;;;;;;11.05;3.50;;;;;;;7.48;100.00;100987.16;5034040;28;20030;-70
2022/11/25 06:57:11;;;;;;;12.93;3.50;;;;;;;7.46;100.00;100990.06;5032604;28;20038;-70
2022/11/25 06:59:37;;;;;;;11.00;3.40;;;;;;;7.45;100.00;100991.91;5030454;28;20131;-70
2022/11/25 07:02:03;;;;;;;11.02;4.07;;;;;;;7.43;100.00;100999.38;5024220;28;20045;-70
2022/11/25 07:04:28;;;;;;;14.32;4.68;;;;;;;7.44;100.00;101003.72;5026736;28;20476;-72
2022/11/25 07:06:54;;;;;;;10.75;3.20;;;;;;;7.42;100.00;101003.09;5033509;28;20036;-70
2022/11/25 07:09:21;;;;;;;11.70;3.35;;;;;;;7.45;100.00;101005.38;5033566;28;20091;-71
2022/11/25 07:11:47;;;;;;;11.88;3.30;;;;;;;7.38;100.00;101015.31;5032198;28;20054;-70
2022/11/25 07:14:14;;;;;;;10.43;3.13;;;;;;;7.38;100.00;101014.44;5032004;28;20039;-70
2022/11/25 07:16:42;;;;;;;12.55;3.20;;;;;;;7.37;100.00;101018.19;5033783;28;20029;-70
2022/11/25 07:19:09;;;;;;;9.88;3.22;;;;;;;7.34;100.00;101032.88;5033659;28;20067;-71
2022/11/25 07:21:35;;;;;;;12.07;3.17;;;;;;;7.37;100.00;101028.97;5032137;28;20400;-71
2022/11/25 07:24:03;;;;;;;11.68;3.90;;;;;;;7.36;100.00;101036.19;5032324;28;20041;-71
2022/11/25 07:26:31;;;;;;;10.18;3.25;;;;;;;7.34;100.00;101043.66;5032483;28;20528;-70
2022/11/25 07:29:00;;;;;;;13.10;3.40;;;;;;;7.32;100.00;101045.69;5033365;28;20112;-71
2022/11/25 07:31:27;;;;;;;10.93;3.40;;;;;;;7.31;100.00;101045.88;5026283;28;20125;-69
2022/11/25 07:33:58;;;;;;;10.85;3.40;;;;;;;7.26;100.00;101050.03;5033316;28;20032;-70
2022/11/25 07:36:24;;;;;;;10.82;3.30;;;;;;;7.31;100.00;101060.19;5033017;28;20036;-71
2022/11/25 07:38:50;;;;;;;11.55;2.97;;;;;;;7.30;100.00;101068.47;5033252;28;20029;-73
2022/11/25 07:41:21;;;;;;;9.07;3.40;;;;;;;7.30;100.00;101063.09;5032330;28;20453;-71
2022/11/25 07:43:49;;;;;;;9.63;3.35;;;;;;;7.28;100.00;101069.50;5031197;28;20033;-71
2022/11/25 07:46:23;;;;;;;6.90;2.75;;;;;;;7.33;100.00;101081.53;5032761;28;20033;-71
2022/11/25 07:48:48;;;;;;;10.27;3.40;;;;;;;7.32;100.00;101086.06;5018655;28;20041;-70
2022/11/25 07:51:21;;;;;;;11.15;3.17;;;;;;;7.32;100.00;101098.72;5012634;28;20117;-72
2022/11/25 07:53:48;;;;;;;14.38;3.38;;;;;;;7.37;100.00;101102.47;5013315;28;20493;-71
2022/11/25 07:56:15;;;;;;;11.77;3.70;;;;;;;7.41;100.00;101100.22;5012610;28;20389;-70
2022/11/25 07:58:41;;;;;;;11.88;3.40;;;;;;;7.43;100.00;101107.06;5025255;28;20048;-71
2022/11/25 08:01:08;;;;;;;11.88;3.15;;;;;;;7.41;100.00;101101.06;5029434;28;20060;-74
2022/11/25 08:03:35;;;;;;;12.10;3.10;;;;;;;7.42;100.00;101118.03;5031331;28;20676;-71
2022/11/25 08:06:07;;;;;;;10.82;3.20;;;;;;;7.42;100.00;101115.34;5032422;28;20033;-70
2022/11/25 08:08:34;;;;;;;12.52;3.45;;;;;;;7.41;100.00;101116.38;5012561;28;20041;-70
2022/11/25 08:11:04;;;;;;;10.07;3.05;;;;;;;7.42;100.00;101128.81;5017824;28;20120;-73
2022/11/25 08:13:31;;;;;;;8.60;3.05;;;;;;;7.39;100.00;101121.94;5031533;28;20457;-72
2022/11/25 08:15:58;;;;;;;12.35;3.47;;;;;;;7.42;100.00;101132.31;5032598;28;20084;-69
2022/11/25 08:18:23;;;;;;;9.25;2.92;;;;;;;7.42;100.00;101136.88;5031120;28;20037;-70
2022/11/25 08:20:48;;;;;;;11.40;3.20;;;;;;;7.45;100.00;101137.31;5032618;28;20030;-74
2022/11/25 08:23:13;;;;;;;9.02;3.08;;;;;;;7.50;100.00;101143.97;5031298;28;20040;-80
2022/11/25 08:25:40;;;;;;;9.40;3.40;;;;;;;7.48;100.00;101149.56;5030896;28;20453;-72
2022/11/25 08:28:05;;;;;;;10.13;3.42;;;;;;;7.49;100.00;101145.84;5027170;28;20104;-70
2022/11/25 08:30:30;;;;;;;9.93;3.22;;;;;;;7.49;100.00;101148.53;5031976;28;20121;-73
2022/11/25 08:32:57;;;;;;;13.60;3.50;;;;;;;7.51;100.00;101141.09;5025025;28;20030;-71
2022/11/25 08:35:23;;;;;;;11.13;3.33;;;;;;;7.56;100.00;101149.41;5032115;28;20088;-70
2022/11/25 08:37:48;;;;;;;12.48;3.40;;;;;;;7.56;100.00;101148.56;5029263;28;20041;-71
2022/11/25 08:40:14;;;;;;;12.98;3.63;;;;;;;7.59;100.00;101151.72;5032411;28;20413;-72
2022/11/25 08:42:39;;;;;;;10.55;3.50;;;;;;;7.62;100.00;101153.16;5030128;28;20389;-70
2022/11/25 08:45:06;;;;;;;10.80;3.50;;;;;;;7.63;100.00;101146.75;5031485;28;20029;-73
2022/11/25 08:47:31;;;;;;;11.73;3.45;;;;;;;7.67;100.00;101141.78;5029859;28;20067;-74
2022/11/25 08:49:57;;;;;;;9.30;3.58;;;;;;;7.69;100.00;101153.22;5031041;28;20444;-72
2022/11/25 08:52:22;;;;;;;15.90;3.92;;;;;;;7.74;100.00;101153.44;5031983;28;20029;-74
2022/11/25 08:54:48;;;;;;;13.88;4.38;;;;;;;7.76;100.00;101159.44;5032354;28;20040;-70
2022/11/25 08:57:13;;;;;;;12.85;3.75;;;;;;;7.79;100.00;101161.78;5030788;28;20041;-71
2022/11/25 08:59:39;;;;;;;11.57;3.78;;;;;;;7.82;100.00;101164.06;5032358;28;20453;-70
2022/11/25 09:02:06;;;;;;;11.85;3.72;;;;;;;7.83;100.00;101160.31;5028257;28;20523;-70
2022/11/25 09:04:32;;;;;;;10.77;3.47;;;;;;;8.00;100.00;101166.22;5031895;28;20033;-71
2022/11/25 09:06:58;;;;;;;20.15;4.45;;;;;;;7.97;100.00;101172.84;5030889;28;20384;-71
2022/11/25 09:09:23;;;;;;;12.55;3.78;;;;;;;7.98;100.00;101184.44;5011909;28;20038;-69
2022/11/25 09:11:48;;;;;;;12.38;3.97;;;;;;;7.98;100.00;101181.75;5016839;28;20049;-70
2022/11/25 09:14:13;;;;;;;12.40;3.90;;;;;;;8.01;100.00;101177.84;5031445;28;20529;-69
2022/11/25 09:16:39;;;;;;;13.38;3.92;;;;;;;8.06;100.00;101187.00;5031345;28;20029;-68
2022/11/25 09:19:05;;;;;;;16.15;4.20;;;;;;;8.06;100.00;101191.53;5030151;28;20026;-69
2022/11/25 09:21:31;;;;;;;14.77;4.13;;;;;;;8.09;100.00;101191.13;5031793;28;20033;-69
2022/11/25 09:23:56;;;;;;;12.02;4.05;;;;;;;8.12;100.00;101196.97;5031457;28;20476;-69
2022/11/25 09:26:23;;;;;;;10.80;3.92;;;;;;;8.12;100.00;101202.38;5031738;28;20452;-69
2022/11/25 09:28:49;;;;;;;11.98;3.72;;;;;;;8.15;100.00;101199.28;5030899;28;20037;-69
2022/11/25 09:31:14;;;;;;;12.80;3.97;;;;;;;8.20;100.00;101200.50;5032467;28;20476;-69
2022/11/25 09:33:40;;;;;;;10.90;3.95;;;;;;;8.22;100.00;101207.38;5034610;28;20091;-69
2022/11/25 09:36:05;;;;;;;14.77;4.22;;;;;;;8.25;100.00;101211.53;5035588;28;20387;-69
2022/11/25 09:38:31;;;;;;;14.77;4.05;;;;;;;8.28;100.00;101222.75;5034293;28;20064;-70
2022/11/25 09:41:02;;;;;;;14.20;4.60;;;;;;;8.29;100.00;101221.72;5035409;28;20037;-70
2022/11/25 09:46:59;;;;;;;13.27;4.00;;;;;;;8.40;100.00;101235.66;5034884;28;20048;-70
2022/11/25 09:49:33;;;;;;;13.70;3.92;;;;;;;8.42;100.00;101239.00;5032166;28;20108;-70
2022/11/25 09:52:23;;;;;;;12.73;3.90;;;;;;;8.44;100.00;101236.94;5035097;28;20123;-70
2022/11/25 09:55:04;;;;;;;15.23;4.20;;;;;;;8.49;100.00;101239.88;5034422;28;20038;-69
2022/11/25 09:58:04;;;;;;;11.75;4.03;;;;;;;8.56;100.00;101239.91;5034034;28;20087;-69
2022/11/25 10:00:39;;;;;;;15.43;3.90;;;;;;;8.55;100.00;101244.47;4997231;28;20056;-70
2022/11/25 10:03:29;;;;;;;11.10;4.18;;;;;;;8.61;100.00;101249.06;5032212;28;20052;-70
2022/11/25 10:06:15;;;;;;;13.75;4.20;;;;;;;8.65;100.00;101252.16;5021525;28;20156;-70
2022/11/25 10:08:48;;;;;;;17.80;4.35;;;;;;;8.67;100.00;101253.63;5027146;28;20030;-70
2022/11/25 10:11:20;;;;;;;13.32;3.97;;;;;;;8.72;100.00;101257.59;5034809;28;20095;-70
2022/11/25 10:14:01;;;;;;;11.10;3.72;;;;;;;8.76;100.00;101266.97;5036013;28;20080;-70
2022/11/25 10:16:45;;;;;;;13.73;4.10;;;;;;;8.79;100.00;101271.94;5032369;28;20068;-71
2022/11/25 10:19:15;;;;;;;13.55;3.72;;;;;;;8.80;100.00;101277.16;5033872;28;20033;-71
2022/11/25 10:21:40;;;;;;;8.90;3.60;;;;;;;8.86;100.00;101281.72;5034453;28;20469;-73
2022/11/25 10:24:13;;;;;;;14.48;4.18;;;;;;;8.91;100.00;101291.91;5034359;28;20032;-72
2022/11/25 10:26:42;;;;;;;13.90;3.78;;;;;;;8.93;100.00;101289.84;5031267;28;20393;-71
2022/11/25 10:29:15;;;;;;;12.57;3.80;;;;;;;8.99;100.00;101299.81;5033839;28;20060;-71
2022/11/25 10:31:42;;;;;;;12.35;3.25;;;;;;;9.02;100.00;101304.81;5032867;28;20040;-71
2022/11/25 10:34:16;;;;;;;10.02;3.28;;;;;;;9.08;100.00;101286.97;5034434;28;20040;-71
2022/11/25 10:36:42;;;;;;;13.55;3.78;;;;;;;9.10;100.00;101308.38;5030461;28;20033;-72
2022/11/25 10:39:14;;;;;;;12.43;3.33;;;;;;;9.13;100.00;101306.06;5033010;28;20036;-71
2022/11/25 10:41:50;;;;;;;13.23;3.45;;;;;;;9.19;100.00;101309.84;5033480;28;20637;-71
2022/11/25 10:44:42;;;;;;;11.60;3.40;;;;;;;9.28;100.00;101316.69;5034293;28;20025;-71
2022/11/25 10:47:29;;;;;;;11.02;3.30;;;;;;;9.31;100.00;101315.47;5030089;28;20401;-72
2022/11/25 10:50:35;;;;;;;13.70;4.05;;;;;;;9.37;100.00;101317.34;5029454;28;20124;-71
2022/11/25 10:53:15;;;;;;;9.02;3.33;;;;;;;9.39;100.00;101318.81;5015624;28;20044;-74
2022/11/25 10:55:56;;;;;;;12.98;3.30;;;;;;;9.45;100.00;101319.00;5012763;28;20408;-71
2022/11/25 10:58:41;;;;;;;10.50;3.28;;;;;;;9.49;100.00;101320.28;5034179;28;20488;-72
2022/11/25 11:01:21;;;;;;;8.18;3.00;;;;;;;9.49;100.00;101325.69;5029788;28;20141;-72
2022/11/25 11:03:53;;;;;;;9.82;3.33;;;;;;;9.51;100.00;101331.69;5018631;28;20040;-71
2022/11/25 11:06:31;;;;;;;15.10;3.67;;;;;;;9.58;100.00;101338.78;5031080;28;20043;-72
2022/11/25 11:08:56;;;;;;;10.05;3.42;;;;;;;9.56;100.00;101327.34;5031159;28;20042;-70
2022/11/25 11:11:22;;;;;;;10.77;3.15;;;;;;;9.60;100.00;101343.16;5028885;28;20405;-72
2022/11/25 11:13:56;;;;;;;11.98;3.28;;;;;;;9.64;100.00;101347.94;5027997;28;20083;-72
2022/11/25 11:16:30;;;;;;;10.88;3.15;;;;;;;9.70;100.00;101339.00;5030056;28;20033;-72
2022/11/25 11:18:56;;;;;;;10.27;2.88;;;;;;;9.70;100.00;101357.09;5015597;28;20037;-72
2022/11/25 11:21:32;;;;;;;11.48;3.42;;;;;;;9.75;100.00;101351.88;5020530;28;20037;-71
2022/11/25 11:23:58;;;;;;;8.65;2.70;;;;;;;9.74;100.00;101361.88;5033569;28;20091;-72
2022/11/25 11:26:31;;;;;;;8.77;2.60;;;;;;;9.78;100.00;101356.88;5031403;28;20376;-73
2022/11/25 11:29:03;;;;;;;12.43;2.83;;;;;;;9.83;100.00;101367.06;5031995;28;20037;-71
2022/11/25 11:31:35;;;;;;;7.97;2.55;;;;;;;9.85;100.00;101367.69;5030084;28;20033;-73
2022/11/25 11:34:25;;;;;;;10.35;2.88;;;;;;;9.89;100.00;101372.47;5018388;28;20030;-71